• Join FlightAware (Why Join?)
  • Login
  • US Flag 
02:55PM EDT


 

Airport Tracker/Info


-or-


 

Live Flight TrackerFlight Track Log ✈ SKW6306 ✈ 20-Jun-2013 ✈ KDEN - CYXE

Flight Track Log - Related Links

Times and Time Zones

All times are in EDT time to prevent confusion due to time zone crossing. See the SKW6306 flight status page for this flight to view local times or setup timezone preferences in your user account.

Time Position Orientation Groundspeed Altitude Reporting Facility
EDT Latitude Longitude Course Direction KTS MPH feet Rate Location/Type
01:52PM 39.9167 -104.6833 11° North 196 226 6,400  Level Denver TRACON
01:53PM 39.9833 -104.6667 11° North 232 267 8,200 1,380 Climbing Denver TRACON
01:54PM 40.0500 -104.6833 349° North 272 313 9,100 1,020 Climbing Denver TRACON
01:55PM 40.0847 -104.6942 347° North 279 321 9,700 1,380 Climbing Denver Center
01:56PM 40.1775 -104.7136 351° North 311 358 11,300 1,380 Climbing Denver Center
01:57PM 40.2706 -104.7342 350° North 337 388 12,600 1,260 Climbing Denver Center
01:58PM 40.3753 -104.7586 350° North 356 410 14,000 1,320 Climbing Denver Center
01:59PM 40.4753 -104.7817 350° North 366 421 15,400 1,380 Climbing Denver Center
02:00PM 40.5853 -104.8056 351° North 374 430 16,900 1,200 Climbing Denver Center
02:01PM 40.6883 -104.8319 349° North 377 434 17,900 960 Climbing Denver Center
02:02PM 40.7978 -104.8569 350° North 376 433 19,000 1,020 Climbing Denver Center
02:03PM 40.8983 -104.9050 340° North 379 436 20,100 900 Climbing Denver Center
02:04PM 41.0142 -104.9636 339° North 394 453 20,900 720 Climbing Denver Center
02:05PM 41.1161 -105.0131 340° North 403 464 21,700 720 Climbing Denver Center
02:06PM 41.2197 -105.0653 339° North 411 473 22,500 780 Climbing Denver Center
02:07PM 41.3414 -105.1236 340° North 414 476 23,400 780 Climbing Denver Center
02:08PM 41.4456 -105.1781 339° North 418 481 24,200 780 Climbing Denver Center
02:09PM 41.5703 -105.2369 341° North 423 487 25,100 720 Climbing Denver Center
02:10PM 41.6872 -105.2597 352° North 440 506 25,800 720 Climbing Denver Center
02:11PM 41.8217 -105.2864 352° North 437 503 26,700 720 Climbing Denver Center
02:12PM 41.9367 -105.3067 353° North 435 501 27,300 540 Climbing Denver Center
02:13PM 42.0736 -105.3322 352° North 440 506 27,900 540 Climbing Denver Center
02:14PM 42.1892 -105.3525 353° North 437 503 28,500 600 Climbing Denver Center
02:15PM 42.3239 -105.3806 351° North 436 502 29,200 480 Climbing Denver Center
02:16PM 42.4394 -105.4011 353° North 436 502 29,600 420 Climbing Denver Center
02:17PM 42.5547 -105.4236 352° North 436 502 30,100 360 Climbing Denver Center
02:19PM 42.6944 -105.4511 352° North 448 516 30,400 300 Climbing Denver Center
02:20PM 42.8544 -105.4817 352° North 452 520 30,800 300 Climbing Denver Center
02:21PM 42.9772 -105.5047 352° North 459 528 31,200 360 Climbing Denver Center
02:22PM 43.0992 -105.5286 352° North 461 531 31,600 360 Climbing Denver Center
02:23PM 43.2433 -105.5556 352° North 466 536 32,000 180 Climbing Denver Center
02:24PM 43.3675 -105.5808 352° North 468 539 32,000  Level Denver Center
02:25PM 43.5144 -105.6100 352° North 474 545 32,000  Level Denver Center
02:26PM 43.6414 -105.6347 352° North 477 549 32,000  Level Denver Center
02:27PM 43.7908 -105.6647 352° North 482 555 32,000  Level Denver Center
02:28PM 43.9192 -105.6903 352° North 484 557 32,000  Level Denver Center
02:29PM 44.0692 -105.7217 351° North 487 560 32,000  Level Denver Center
02:30PM 44.1978 -105.7492 351° North 488 562 32,000  Level Denver Center
02:31PM 44.3497 -105.7797 352° North 490 564 32,000  Level Denver Center
02:32PM 44.4164 -105.7919 353° North 493 567 32,000  Level Salt Lake Center
02:33PM 44.5681 -105.8239 351° North 493 567 32,000  Level Salt Lake Center
02:34PM 44.6994 -105.8503 352° North 496 571 32,000  Level Salt Lake Center
02:35PM 44.8528 -105.8839 351° North 497 572 32,000  Level Salt Lake Center
02:36PM 44.9850 -105.9097 352° North 500 575 32,000  Level Salt Lake Center
02:37PM 45.1381 -105.9428 351° North 499 574 32,000  Level Salt Lake Center
02:38PM 45.2686 -105.9686 352° North 496 571 32,000  Level Salt Lake Center
02:39PM 45.3983 -105.9983 351° North 497 572 32,000  Level Salt Lake Center
02:40PM 45.5597 -106.0450 349° North 495 570 32,000  Level Salt Lake Center
02:41PM 45.6931 -106.0861 348° North 492 566 32,000  Level Salt Lake Center
02:42PM 45.8261 -106.1278 348° North 491 565 32,000  Level Salt Lake Center
02:43PM 45.9575 -106.1689 348° North 488 562 32,000  Level Salt Lake Center
02:44PM 46.0906 -106.2122 347° North 488 562 32,000  Level Salt Lake Center
02:45PM 46.2236 -106.2550 347° North 488 562 32,000  Level Salt Lake Center
02:46PM 46.3842 -106.3072 347° North 490 564 32,000  Level Salt Lake Center
02:47PM 46.5178 -106.3517 347° North 491 565 32,000  Level Salt Lake Center
02:48PM 46.6539 -106.3983 347° North 494 568 32,000  Level Salt Lake Center
02:49PM 46.7883 -106.4425 347° North 495 570 32,000  Level Salt Lake Center
02:50PM 46.9233 -106.4875 347° North 496 571 32,000  Level Salt Lake Center
02:51PM 47.0589 -106.5331 347° North 497 572 32,000  Level Salt Lake Center
02:52PM 47.1961 -106.5794 347° North 500 575 32,000  Level Salt Lake Center
02:53PM 47.3619 -106.6353 347° North 504 580 32,000  Level Salt Lake Center
02:54PM 47.4978 -106.6817 347° North 504 580 32,000  Level Salt Lake Center
02:56PM 47.6358 -106.7292 347° North 506 582 32,000  Level Salt Lake Center
02:57PM 47.7717 -106.7758 347° North 504 580 32,000  Level Salt Lake Center
02:58PM 47.9089 -106.8233 347° North 504 580 32,000  Level Salt Lake Center
02:59PM 48.0478 -106.8717 347° North 508 585 32,000  Level Salt Lake Center
03:00PM 48.2108 -106.9292 347° North 505 581 32,000  Level Salt Lake Center
03:01PM 48.3508 -106.9772 347° North 510 587 32,000  Level Salt Lake Center
03:02PM 48.4892 -107.0269 347° North 512 589 32,000  Level Salt Lake Center
03:03PM 48.6297 -107.0692 349° North 513 590 32,000  Level Salt Lake Center
03:04PM 48.7758 -107.0828 356° North 519 597 32,000  Level Salt Lake Center
03:05PM 48.9167 -107.1167 351° North 520 598 32,000  Level Winnipeg Center
03:06PM 49.0667 -107.1500 352° North 520 598 32,000  Level Winnipeg Center
03:07PM 49.2167 -107.1833 352° North 520 598 32,000  Level Winnipeg Center
03:08PM 49.3500 -107.1833 360° North 520 598 32,000  Level Winnipeg Center
03:09PM 49.5000 -107.1833 360° North 520 598 32,000  Level Winnipeg Center
03:10PM 49.6333 -107.2167 351° North 520 598 32,000  Level Winnipeg Center
03:11PM 49.8000 -107.2333 356° North 520 598 32,000  Level Winnipeg Center
03:12PM 49.9333 -107.2500 355° North 520 598 32,000  Level Winnipeg Center
03:13PM 50.0833 -107.2667 356° North 510 587 32,000  Level Winnipeg Center
03:14PM 50.2167 -107.2833 355° North 520 598 32,000  Level Winnipeg Center
03:15PM 50.3500 -107.3000 355° North 510 587 32,000  Level Winnipeg Center
03:16PM 50.5000 -107.3333 352° North 510 587 32,000  Level Winnipeg Center
03:17PM 50.6500 -107.3333 360° North 500 575 32,000  Level Winnipeg Center
03:18PM 50.7833 -107.3667 351° North 500 575 32,000  Level Winnipeg Center
03:19PM 50.9000 -107.3667 360° North 490 564 32,000 -120 Level Winnipeg Center
03:20PM 51.0500 -107.4000 352° North 490 564 31,800 -660 Descending Winnipeg Center
03:21PM 51.1833 -107.4000 360° North 490 564 30,700 -1,920 Descending Winnipeg Center
03:22PM 51.3167 -107.4333 351° North 480 552 28,000 -2,880 Descending Winnipeg Center
03:23PM 51.4333 -107.4167 North 450 518 25,000 -3,420 Descending Winnipeg Center
03:24PM 51.5667 -107.3333 21° North 450 518 21,200 -3,660 Descending Winnipeg Center
03:25PM 51.6667 -107.2667 22° Northeast 430 495 17,700 -3,360 Descending Winnipeg Center
03:26PM 51.7667 -107.2167 17° North 430 495 14,500 -2,820 Descending Winnipeg Center
03:27PM 51.8833 -107.1500 19° North 400 460 12,100 -2,100 Descending Winnipeg Center
03:28PM 51.9667 -107.1000 20° North 360 414 10,300 -1,680 Descending Winnipeg Center
03:29PM 52.0500 -107.0667 14° North 310 357 8,800 -1,560 Descending Winnipeg Center
03:30PM 52.1333 -107.0500 North 270 311 7,200 -1,740 Descending Winnipeg Center
03:31PM 52.1833 -107.0000 32° Northeast 220 253 5,400 -1,620 Descending Winnipeg Center
03:32PM 52.1833 -106.9500 90° East 160 184 4,000 -1,440 Descending Winnipeg Center